Date,TemperatureHighF,TemperatureAvgF,TemperatureLowF,DewpointHighF,DewpointAvgF,DewpointLowF,HumidityHigh,HumidityAvg,HumidityLow,PressureMaxIn,PressureMinIn,WindSpeedMaxMPH,WindSpeedAvgMPH,GustSpeedMaxMPH,PrecipitationSumIn
2013-1-1,26.0,17.4,14.0,22.0,14.9,12.0,91,89,80,0.00,40.00,5,3,10,0.02
2013-1-2,17.0,13.4,11.0,13.0,10.4,8.0,90,88,85,0.00,40.00,4,2,7,0.01
2013-1-3,25.0,14.9,7.0,20.0,11.1,3.0,90,85,79,0.00,40.00,7,3,11,0.00
2013-1-4,43.0,27.0,17.0,28.0,20.8,13.0,95,78,53,0.00,40.00,7,3,11,0.02
2013-1-5,24.0,22.2,18.0,22.0,20.3,16.0,95,92,88,0.00,40.00,4,2,8,0.01
2013-1-6,43.0,30.9,22.0,30.0,25.3,20.0,93,80,59,0.00,40.00,9,4,21,0.03
2013-1-7,44.0,39.4,35.0,39.0,33.3,28.0,93,79,61,0.00,40.00,14,9,28,0.20
2013-1-8,45.0,40.8,36.0,38.0,34.7,29.0,90,79,54,0.00,40.00,15,8,26,0.05
2013-1-9,46.0,35.8,25.0,32.0,23.7,14.0,87,64,34,0.00,40.00,14,7,32,0.02
2013-1-10,37.0,26.8,23.0,29.0,19.2,13.0,91,73,50,0.00,40.00,6,4,14,0.04
2013-1-11,33.0,22.0,15.0,15.0,11.8,7.0,81,66,36,0.00,40.00,5,3,14,0.01
2013-1-12,29.0,17.5,12.0,14.0,9.9,5.0,87,72,49,0.00,40.00,4,2,9,0.00
2013-1-13,33.0,18.6,10.0,11.0,6.1,2.0,74,59,33,0.00,40.00,5,3,7,0.00
2013-1-14,42.0,27.7,16.0,24.0,13.5,3.0,85,57,34,0.00,40.00,5,4,9,0.00
2013-1-15,51.0,34.4,23.0,26.0,21.9,16.0,90,65,33,0.00,40.00,6,3,11,0.00
2013-1-16,59.0,44.5,36.0,20.0,15.4,8.0,44,32,17,0.00,40.00,5,3,8,0.00
2013-1-17,54.0,38.6,31.0,23.0,19.6,17.0,61,47,28,0.00,40.00,5,3,10,0.00
2013-1-18,50.0,36.2,28.0,23.0,19.0,16.0,67,51,31,0.00,40.00,6,4,10,0.00
2013-1-19,54.0,40.0,33.0,21.0,18.2,15.0,54,42,25,0.00,40.00,5,3,9,0.00
2013-1-20,50.0,35.1,26.0,22.0,18.8,15.0,75,53,32,0.00,40.00,4,3,7,0.00
2013-1-21,48.0,32.2,22.0,23.0,16.9,13.0,76,55,27,0.00,40.00,5,3,10,0.00
2013-1-22,42.0,27.8,22.0,24.0,18.0,13.0,91,68,46,0.00,40.00,5,3,8,0.00
2013-1-23,38.0,31.0,23.0,32.0,24.4,19.0,91,77,52,0.00,40.00,8,3,13,0.00
2013-1-24,51.0,38.4,29.0,37.0,31.2,28.0,95,77,48,0.00,40.00,9,4,18,0.00
2013-1-25,46.0,41.2,36.0,42.0,37.0,26.0,96,85,66,0.00,40.00,9,5,18,0.08
2013-1-26,40.0,33.3,28.0,29.0,24.4,19.0,94,70,53,0.00,40.00,9,5,20,0.01
2013-1-27,36.0,30.2,27.0,28.0,24.5,20.0,96,80,53,0.00,40.00,9,5,17,0.01
2013-1-28,34.0,30.7,28.0,30.0,28.1,26.0,95,90,78,0.00,40.00,11,6,26,0.08
2013-1-29,38.0,34.7,31.0,32.0,30.0,28.0,95,84,69,0.00,40.00,13,10,27,0.39
2013-1-30,44.0,37.9,34.0,34.0,31.3,26.0,88,77,65,0.00,40.00,12,9,24,0.02
2013-1-31,51.0,40.5,33.0,37.0,32.2,30.0,94,74,50,0.00,40.00,3,2,9,0.00
2013-2-1,51.0,37.7,28.0,34.0,30.0,26.0,96,76,45,0.00,40.00,5,3,7,0.00
2013-2-2,46.0,36.3,28.0,32.0,28.0,24.0,88,73,56,0.00,40.00,4,3,7,0.00
2013-2-3,55.0,41.9,32.0,30.0,24.7,20.0,83,54,28,0.00,40.00,8,4,19,0.00
2013-2-4,53.0,43.3,37.0,26.0,21.1,15.0,55,42,26,0.00,40.00,8,3,14,0.00
2013-2-5,45.0,39.0,33.0,33.0,26.7,15.0,93,63,31,0.00,40.00,10,7,22,0.01
2013-2-6,43.0,36.7,33.0,31.0,27.2,23.0,93,70,47,0.00,40.00,11,6,20,0.05
2013-2-7,41.0,32.3,25.0,31.0,22.9,19.0,91,69,46,0.00,40.00,9,4,14,0.03
2013-2-8,46.0,29.6,21.0,23.0,17.4,10.0,88,64,28,0.00,40.00,5,3,11,0.00
2013-2-9,48.0,31.3,23.0,27.0,21.8,17.0,83,69,43,0.00,40.00,6,4,11,0.00
2013-2-10,49.0,35.6,26.0,27.0,22.5,19.0,88,62,35,0.00,40.00,5,3,8,0.00
2013-2-11,49.0,35.5,26.0,32.0,26.0,22.0,89,71,44,0.00,40.00,7,4,19,0.00
2013-2-12,46.0,38.8,33.0,34.0,29.5,26.0,83,70,52,0.00,40.00,10,5,19,0.00
2013-2-13,45.0,39.6,33.0,33.0,30.0,26.0,85,69,53,0.00,40.00,9,6,19,0.00
2013-2-14,56.0,40.2,31.0,37.0,31.9,28.0,92,75,47,0.00,40.00,5,3,9,0.00
2013-2-15,57.0,42.0,33.0,37.0,33.6,31.0,96,74,45,0.00,40.00,5,3,8,0.00
2013-2-16,46.0,39.3,31.0,34.0,27.6,21.0,90,64,48,0.00,40.00,9,6,20,0.00
2013-2-17,43.0,32.5,26.0,25.0,20.9,18.0,81,64,37,0.00,40.00,6,3,13,0.00
2013-2-18,37.0,30.5,25.0,25.0,21.2,18.0,85,69,48,0.00,40.00,6,3,13,0.00
2013-2-19,42.0,31.5,25.0,26.0,21.0,18.0,80,67,44,0.00,40.00,4,2,9,0.00
2013-2-20,39.0,30.4,24.0,24.0,20.7,18.0,92,69,43,0.00,40.00,8,4,17,0.00
2013-2-21,35.0,30.0,25.0,28.0,24.6,20.0,93,81,59,0.00,40.00,10,6,26,0.00
2013-2-22,36.0,33.0,29.0,32.0,27.6,21.0,94,81,67,0.00,40.00,14,9,28,0.12
2013-2-23,41.0,30.3,26.0,27.0,21.6,18.0,93,71,46,0.00,40.00,10,6,27,0.15
2013-2-24,46.0,33.5,22.0,29.0,23.1,19.0,88,68,44,0.00,40.00,8,4,24,0.01
2013-2-25,38.0,32.0,24.0,31.0,27.2,18.0,95,82,62,0.00,40.00,9,6,25,0.19
2013-2-26,43.0,32.2,22.0,25.0,19.8,10.0,92,64,33,0.00,40.00,7,4,15,0.07
2013-2-27,45.0,38.9,33.0,36.0,25.8,9.0,80,60,35,0.00,40.00,11,6,17,0.01
2013-2-28,49.0,43.1,37.0,44.0,38.3,32.0,94,83,70,0.00,40.00,11,6,20,0.20
2013-3-1,57.0,48.1,42.0,37.0,34.5,27.0,80,61,40,0.00,40.00,9,6,21,0.01
2013-3-2,54.0,45.1,39.0,36.0,32.6,29.0,86,63,40,0.00,40.00,9,5,20,0.02
2013-3-3,45.0,34.8,26.0,33.0,18.0,5.0,79,54,19,0.00,40.00,7,4,15,0.02
2013-3-4,49.0,33.4,22.0,20.0,15.3,9.0,69,49,31,0.00,40.00,6,3,12,0.00
2013-3-5,40.0,32.0,28.0,31.0,22.5,16.0,95,69,49,0.00,40.00,4,2,9,0.01
2013-3-6,36.0,31.6,29.0,32.0,28.7,25.0,96,89,74,0.00,40.00,8,5,19,0.25
2013-3-7,45.0,34.9,28.0,28.0,24.7,21.0,87,68,44,0.00,40.00,8,3,18,0.05
2013-3-8,47.0,35.3,28.0,31.0,25.4,20.0,93,69,41,0.00,40.00,5,2,10,0.02
2013-3-9,55.0,39.3,27.0,24.0,20.0,16.0,75,50,22,0.00,40.00,7,4,14,0.00
2013-3-10,55.0,42.5,33.0,38.0,28.3,16.0,90,61,25,0.00,40.00,10,6,21,0.01
2013-3-11,51.0,44.7,40.0,41.0,38.3,36.0,91,79,64,0.00,40.00,6,4,14,0.01
2013-3-12,59.0,47.3,38.0,40.0,35.4,28.0,94,67,41,0.00,40.00,10,6,24,0.00
2013-3-13,64.0,53.5,45.0,39.0,36.0,34.0,69,53,35,0.00,40.00,8,5,18,0.00
2013-3-14,62.0,50.3,42.0,39.0,30.5,20.0,82,50,23,0.00,40.00,10,6,21,0.00
2013-3-15,55.0,47.1,42.0,40.0,34.6,29.0,91,64,40,0.00,40.00,7,5,17,0.00
2013-3-16,47.0,39.7,30.0,33.0,29.8,26.0,92,68,53,0.00,40.00,10,8,24,0.05
2013-3-17,40.0,32.3,28.0,28.0,19.6,14.0,92,60,47,0.00,40.00,11,7,29,0.08
2013-3-18,51.0,35.7,27.0,24.0,21.4,16.0,77,58,24,0.00,40.00,7,4,17,0.02
2013-3-19,45.0,35.5,28.0,34.0,24.9,19.0,95,66,45,0.00,40.00,4,2,7,0.19
2013-3-20,43.0,37.0,28.0,41.0,34.0,23.0,96,89,66,0.00,40.00,11,7,25,0.40
2013-3-21,35.0,29.6,25.0,27.0,22.7,19.0,83,75,66,0.00,40.00,9,6,21,0.22
2013-3-22,36.0,28.8,22.0,23.0,20.2,15.0,93,72,45,0.00,40.00,7,4,16,0.10
2013-3-23,43.0,31.2,23.0,23.0,20.3,18.0,86,66,37,0.00,40.00,4,2,10,0.03
2013-3-24,45.0,34.3,28.0,26.0,22.7,19.0,74,63,43,0.00,40.00,4,2,8,0.00
2013-3-25,48.0,38.5,29.0,31.0,26.3,22.0,77,63,44,0.00,40.00,4,2,9,0.00
2013-3-26,46.0,39.2,33.0,39.0,34.8,27.0,96,85,63,0.00,40.00,3,2,7,0.08
2013-3-27,53.0,42.2,35.0,45.0,37.2,34.0,97,84,53,0.00,40.00,7,3,15,0.03
2013-3-28,58.0,48.9,43.0,44.0,41.7,35.0,97,79,49,0.00,40.00,5,2,17,0.01
2013-3-29,56.0,47.4,41.0,48.0,42.4,40.0,97,84,57,0.00,40.00,6,2,10,0.03
2013-3-30,67.0,50.8,38.0,46.0,40.0,-99.9,95,73,42,0.00,40.00,4,3,8,0.01
2013-3-31,67.0,52.4,40.0,42.0,38.8,36.0,87,63,38,0.00,40.00,4,2,10,0.00
2013-4-1,62.0,49.4,41.0,44.0,40.4,36.0,95,73,46,0.00,40.00,7,4,16,0.00
2013-4-2,60.0,48.4,38.0,41.0,37.7,35.0,93,69,39,0.00,40.00,8,5,17,0.00
2013-4-3,64.0,49.1,38.0,40.0,35.1,21.0,95,64,19,0.00,40.00,6,3,14,0.00
2013-4-4,59.0,47.7,40.0,47.0,39.2,33.0,94,73,55,0.00,40.00,9,5,23,0.26
2013-4-5,50.0,43.3,40.0,41.0,38.1,36.0,95,82,60,0.00,40.00,11,7,22,0.30
2013-4-6,45.0,40.2,37.0,39.0,35.7,34.0,94,84,69,0.00,40.00,10,7,26,0.33
2013-4-7,41.0,36.8,31.0,39.0,32.3,25.0,95,84,66,0.00,40.00,14,8,36,0.41
2013-4-8,49.0,37.2,29.0,29.0,25.8,23.0,90,65,43,0.00,40.00,7,4,18,0.03
2013-4-9,55.0,40.9,28.0,34.0,28.1,22.0,92,64,28,0.00,40.00,6,4,10,0.00
2013-4-10,53.0,46.1,37.0,44.0,34.8,24.0,84,66,46,0.00,40.00,11,7,28,0.03
2013-4-11,54.0,39.7,30.0,30.0,26.9,24.0,82,62,38,0.00,40.00,6,3,16,0.03
2013-4-12,56.0,40.3,29.0,34.0,27.1,20.0,88,64,24,0.00,40.00,14,6,35,0.01
2013-4-13,44.0,36.3,31.0,31.0,22.2,19.0,77,57,41,0.00,40.00,16,10,34,0.01
2013-4-14,42.0,33.4,28.0,28.0,24.8,21.0,84,71,52,0.00,40.00,8,4,17,0.02
2013-4-15,41.0,33.2,28.0,32.0,27.4,23.0,94,81,53,0.00,40.00,5,2,13,0.03
2013-4-16,44.0,34.3,28.0,33.0,28.6,19.0,95,82,46,0.00,40.00,5,3,14,0.05
2013-4-17,49.0,36.2,23.0,31.0,24.1,17.0,96,67,30,0.00,40.00,5,3,12,0.03
2013-4-18,58.0,45.2,35.0,40.0,33.3,27.0,83,64,46,0.00,40.00,8,5,20,0.01
2013-4-19,49.0,44.3,38.0,42.0,39.0,34.0,91,82,63,0.00,40.00,10,7,25,0.23
2013-4-20,54.0,43.9,36.0,38.0,34.1,31.0,89,70,46,0.00,40.00,11,7,21,0.06
2013-4-21,55.0,44.9,37.0,39.0,33.3,28.0,77,64,53,0.00,40.00,11,7,22,0.01
2013-4-22,53.0,41.4,30.0,33.0,24.8,14.0,93,56,26,0.00,40.00,6,3,16,0.00
2013-4-23,63.0,43.9,29.0,22.0,14.8,8.0,55,34,12,0.00,40.00,5,3,13,0.00
2013-4-24,67.0,50.6,34.0,23.0,18.1,12.0,47,29,13,0.00,40.00,6,3,10,0.00
2013-4-25,72.0,59.9,43.0,33.0,28.7,18.0,45,31,24,0.00,40.00,7,4,20,0.00
2013-4-26,75.0,60.0,45.0,35.0,28.7,17.0,54,33,11,0.00,40.00,8,5,16,0.00
2013-4-27,70.0,57.6,47.0,34.0,28.8,23.0,52,35,19,0.00,40.00,11,7,28,0.00
2013-4-28,59.0,51.1,44.0,38.0,31.4,25.0,72,48,35,0.00,40.00,10,7,26,0.00
2013-4-29,51.0,46.4,33.0,38.0,30.8,21.0,73,56,34,0.00,40.00,12,8,36,0.00
2013-4-30,51.0,39.5,27.0,22.0,19.2,16.0,74,47,25,0.00,40.00,5,4,16,0.00
2013-5-1,62.0,44.2,28.0,24.0,20.5,15.0,72,44,18,0.00,40.00,6,3,14,0.00
2013-5-2,74.0,55.4,38.0,28.0,20.9,11.0,53,30,11,0.00,40.00,6,3,14,0.00
2013-5-3,72.0,60.8,45.0,35.0,29.0,23.0,49,31,19,0.00,40.00,6,3,14,0.00
2013-5-4,69.0,57.6,44.0,36.0,28.2,22.0,58,35,17,0.00,40.00,8,4,22,0.00
2013-5-5,73.0,58.7,45.0,35.0,30.9,26.0,56,36,23,0.00,40.00,6,4,16,0.00
2013-5-6,80.0,67.8,50.0,40.0,32.8,27.0,50,29,15,0.00,40.00,5,3,17,0.00
2013-5-7,77.0,62.1,48.0,47.0,42.2,35.0,85,52,23,0.00,40.00,6,5,16,0.00
2013-5-8,82.0,62.6,47.0,48.0,42.7,35.0,85,54,19,0.00,40.00,8,4,15,0.00
2013-5-9,85.0,65.2,51.0,48.0,43.6,33.0,83,52,16,0.00,40.00,6,4,17,0.00
2013-5-10,86.0,68.1,54.0,49.0,40.8,-99.9,67,43,18,0.00,40.00,6,4,19,0.00
2013-5-11,86.0,69.3,57.0,50.0,45.3,-99.9,72,46,22,0.00,40.00,6,4,18,0.00
2013-5-12,76.0,66.1,57.0,51.0,45.6,38.0,69,50,29,0.00,40.00,10,6,22,0.00
2013-5-13,60.0,53.2,45.0,47.0,41.1,32.0,79,64,45,0.00,40.00,12,7,30,0.00
2013-5-14,65.0,51.9,37.0,36.0,33.0,25.0,82,52,23,0.00,40.00,10,5,17,0.00
2013-5-15,58.0,49.1,43.0,44.0,38.3,34.0,78,67,43,0.00,40.00,8,4,17,0.04
2013-5-16,59.0,44.3,43.0,48.0,23.7,-99.9,93,75,44,0.00,40.00,8,4,15,0.12
2013-5-17,57.0,47.1,40.0,42.0,33.3,-99.9,93,66,40,0.00,40.00,9,5,24,0.01
2013-5-18,58.0,45.6,37.0,41.0,36.0,33.0,86,70,50,0.00,40.00,9,5,19,0.00
2013-5-19,63.0,50.0,38.0,42.0,36.0,32.0,90,62,34,0.00,40.00,6,4,12,0.00
2013-5-20,74.0,56.6,38.0,39.0,34.4,29.0,84,49,20,0.00,40.00,7,4,15,0.00
2013-5-21,52.0,44.4,33.0,39.0,32.2,23.0,89,63,43,0.00,40.00,9,7,21,0.03
2013-5-22,43.0,36.8,33.0,33.0,27.7,23.0,79,69,63,0.00,40.00,9,7,20,0.01
2013-5-23,55.0,43.2,33.0,34.0,29.6,28.0,84,61,37,0.00,40.00,8,6,18,0.01
2013-5-24,54.0,43.8,35.0,34.0,31.7,29.0,89,65,39,0.00,40.00,10,6,24,0.02
2013-5-25,63.0,49.2,34.0,44.0,33.9,31.0,91,60,32,0.00,40.00,7,4,19,0.01
2013-5-26,59.0,49.7,44.0,46.0,39.7,34.0,96,71,45,0.00,40.00,11,6,23,0.11
2013-5-27,57.0,47.0,42.0,50.0,41.5,35.0,91,81,60,0.00,40.00,8,5,19,0.24
2013-5-28,59.0,51.0,44.0,43.0,38.2,35.0,87,62,43,0.00,40.00,10,6,24,0.06
2013-5-29,54.0,46.9,41.0,44.0,39.9,34.0,97,78,59,0.00,40.00,13,7,32,0.54
2013-5-30,58.0,46.6,36.0,35.0,32.1,30.0,81,59,38,0.00,40.00,8,6,18,0.01
2013-5-31,71.0,51.9,36.0,39.0,34.4,29.0,89,57,22,0.00,40.00,6,3,15,0.00
2013-6-1,74.0,58.7,44.0,42.0,38.2,30.0,81,51,25,0.00,40.00,8,4,17,0.00
2013-6-2,71.0,57.4,46.0,45.0,38.8,30.0,85,55,22,0.00,40.00,7,3,18,0.00
2013-6-3,77.0,58.2,41.0,40.0,36.1,28.0,82,49,17,0.00,40.00,6,4,14,0.00
2013-6-4,79.0,64.8,47.0,40.0,34.7,31.0,63,36,18,0.00,40.00,5,3,13,0.00
2013-6-5,85.0,69.8,52.0,43.0,39.1,35.0,60,35,19,0.00,40.00,8,4,15,0.00
2013-6-6,87.0,69.6,55.0,47.0,44.3,41.0,65,44,21,0.00,40.00,7,4,15,0.00
2013-6-7,80.0,66.8,53.0,48.0,44.5,41.0,68,47,27,0.00,40.00,9,5,25,0.00
2013-6-8,85.0,68.6,51.0,46.0,41.1,32.0,73,42,17,0.00,40.00,7,4,13,0.00
2013-6-9,80.0,65.0,51.0,47.0,38.1,23.0,64,41,15,0.00,40.00,8,4,20,0.00
2013-6-10,77.0,59.7,46.0,36.0,33.2,24.0,63,40,14,0.00,40.00,9,5,19,0.00
2013-6-11,60.0,50.8,41.0,36.0,33.8,31.0,72,53,36,0.00,40.00,12,7,21,0.00
2013-6-12,60.0,49.3,38.0,39.0,33.6,31.0,83,57,33,0.00,40.00,9,5,19,0.00
2013-6-13,58.0,47.3,39.0,40.0,36.1,33.0,88,66,45,0.00,40.00,11,5,25,0.00
2013-6-14,74.0,54.8,38.0,40.0,35.0,30.0,90,54,21,0.00,40.00,7,4,12,0.00
2013-6-15,80.0,63.4,46.0,49.0,40.6,35.0,75,48,20,0.00,40.00,6,3,14,0.02
2013-6-16,79.0,63.6,51.0,50.0,43.8,40.0,75,51,26,0.00,40.00,9,5,17,0.02
2013-6-17,75.0,61.4,49.0,49.0,43.6,40.0,88,56,30,0.00,40.00,9,4,19,0.00
2013-6-18,63.0,53.2,45.0,44.0,39.0,33.0,77,60,33,0.00,40.00,7,5,19,0.00
2013-6-19,58.0,49.5,44.0,38.0,35.9,34.0,73,60,46,0.00,40.00,11,7,25,0.00
2013-6-20,64.0,47.4,39.0,37.0,34.2,32.0,79,62,34,0.00,40.00,10,6,17,0.00
2013-6-22,76.0,66.9,49.0,44.0,40.9,36.0,76,41,27,0.00,40.00,7,4,15,0.00
2013-6-23,63.0,57.8,53.0,56.0,50.6,44.0,100,78,51,0.00,40.00,4,2,7,0.37
2013-6-24,61.0,52.7,47.0,53.0,46.4,41.0,100,80,56,0.00,40.00,7,4,12,0.26
2013-6-25,63.0,53.7,50.0,52.0,48.5,42.0,100,84,50,0.00,40.00,8,4,18,0.49
2013-6-26,66.0,56.6,49.0,56.0,50.9,48.0,99,83,57,0.00,40.00,7,3,19,0.09
2013-6-27,80.0,65.7,53.0,57.0,52.4,49.0,94,66,40,0.00,40.00,6,3,16,0.01
2013-6-28,90.0,72.7,57.0,60.0,56.3,53.0,91,61,32,0.00,40.00,5,3,10,0.00
2013-6-29,87.0,73.3,62.0,60.0,55.4,50.0,79,56,30,0.00,40.00,6,4,11,0.00
2013-6-30,93.0,76.9,58.0,56.0,52.7,47.0,74,46,24,0.00,40.00,5,3,15,0.00
2013-7-1,97.0,81.2,67.0,62.0,55.5,51.0,68,44,25,0.00,40.00,6,4,14,0.00
2013-7-2,97.0,81.2,67.0,63.0,57.7,48.0,77,49,19,0.00,40.00,8,5,17,0.00
2013-7-3,87.0,74.9,63.0,58.0,49.1,35.0,77,44,19,0.00,40.00,9,4,19,0.00
2013-7-4,82.0,71.3,56.0,44.0,39.8,35.0,57,34,21,0.00,40.00,6,5,16,0.00
2013-7-5,78.0,61.4,48.0,43.0,40.7,33.0,78,51,21,0.00,40.00,7,3,14,0.00
2013-7-6,84.0,62.8,47.0,48.0,41.2,38.0,74,50,21,0.00,40.00,5,3,11,0.00
2013-7-7,86.0,70.3,54.0,52.0,45.1,40.0,76,45,20,0.00,40.00,8,4,16,0.00
2013-7-8,86.0,63.6,52.0,49.0,42.8,-99.9,80,54,16,0.00,40.00,5,3,11,0.00
2013-7-9,92.0,78.5,57.0,51.0,45.8,43.0,67,34,19,0.00,40.00,6,4,13,0.00
2013-7-10,86.0,74.7,62.0,53.0,43.7,-99.9,65,37,19,0.00,40.00,9,6,22,0.00
2013-7-11,79.0,65.7,53.0,49.0,40.0,30.0,76,42,23,0.00,40.00,8,4,18,0.00
2013-7-12,74.0,59.8,49.0,41.0,35.2,26.0,65,43,17,0.00,40.00,9,4,21,0.00
2013-7-13,80.0,60.0,45.0,41.0,32.9,19.0,74,43,10,0.00,40.00,5,3,11,0.00
2013-7-14,87.0,77.3,51.0,41.0,34.2,23.0,39,22,15,0.00,40.00,7,5,15,0.00
2013-7-15,88.0,73.2,56.0,46.0,38.7,34.0,57,32,15,0.00,40.00,5,3,13,0.00
2013-7-16,84.0,76.8,66.0,50.0,41.6,37.0,52,30,21,0.00,40.00,6,4,12,0.00
2013-7-17,86.0,74.4,61.0,48.0,40.3,32.0,54,33,15,0.00,40.00,8,6,16,0.00
2013-7-18,93.0,78.4,57.0,46.0,39.3,30.0,54,28,11,0.00,40.00,7,3,13,0.00
2013-7-19,94.0,76.5,60.0,48.0,39.8,26.0,55,32,9,0.00,40.00,5,3,14,0.00
2013-7-20,94.0,79.2,59.0,49.0,35.3,21.0,61,27,7,0.00,40.00,7,4,16,0.00
2013-7-21,92.0,71.3,56.0,43.0,34.0,22.0,50,30,8,0.00,40.00,6,4,12,0.00
2013-7-22,94.0,73.3,57.0,45.0,39.5,31.0,61,35,11,0.00,40.00,6,4,14,0.00
2013-7-23,95.0,82.3,60.0,47.0,35.3,27.0,48,22,9,0.00,40.00,7,5,15,0.00
2013-7-24,93.0,76.4,64.0,41.0,33.5,23.0,34,23,8,0.00,40.00,8,4,16,0.00
2013-7-25,95.0,79.6,62.0,41.0,33.8,25.0,38,22,9,0.00,40.00,8,4,15,0.00
2013-7-26,96.0,79.3,66.0,41.0,34.1,26.0,36,21,9,0.00,40.00,6,3,14,0.00
2013-7-27,86.0,69.5,57.0,40.0,34.2,29.0,43,29,13,0.00,40.00,6,4,14,0.00
2013-7-28,83.0,65.7,50.0,41.0,35.9,30.0,55,36,17,0.00,40.00,7,4,14,0.00
2013-7-29,85.0,67.4,50.0,45.0,38.8,32.0,70,41,15,0.00,40.00,7,4,15,0.00
2013-7-30,85.0,67.2,51.0,46.0,40.1,28.0,72,43,13,0.00,40.00,6,4,12,0.00
2013-7-31,85.0,67.3,60.0,59.0,44.2,32.0,89,45,17,0.00,40.00,5,3,12,0.13
2013-8-1,72.0,60.1,51.0,54.0,47.0,41.0,82,63,46,0.00,40.00,10,6,21,0.04
2013-8-2,76.0,59.0,47.0,48.0,45.0,39.0,88,63,26,0.00,40.00,6,4,16,0.00
2013-8-3,84.0,67.2,51.0,48.0,43.4,34.0,85,48,19,0.00,40.00,6,3,14,0.00
2013-8-4,89.0,73.3,57.0,50.0,44.9,38.0,66,41,18,0.00,40.00,6,3,14,0.00
2013-8-5,88.0,73.8,58.0,52.0,45.3,38.0,61,39,18,0.00,40.00,7,4,14,0.00
2013-8-6,90.0,71.9,55.0,50.0,42.3,32.0,64,40,13,0.00,40.00,7,4,15,0.00
2013-8-7,84.0,69.6,58.0,45.0,40.3,35.0,47,36,19,0.00,40.00,9,4,24,0.00
2013-8-8,86.0,72.7,61.0,52.0,44.3,39.0,58,38,22,0.00,40.00,7,3,15,0.00
2013-8-9,87.0,66.4,54.0,56.0,51.9,41.0,92,64,23,0.00,40.00,8,3,26,0.16
2013-8-10,75.0,61.3,51.0,56.0,50.5,46.0,92,70,43,0.00,40.00,6,4,18,0.13
2013-8-11,78.0,63.3,51.0,52.0,48.2,41.0,93,63,29,0.00,40.00,7,4,16,0.02
2013-8-12,82.0,65.8,52.0,53.0,47.6,40.0,88,58,24,0.00,40.00,7,4,16,0.00
2013-8-13,88.0,70.7,54.0,47.0,42.4,39.0,63,40,19,0.00,40.00,6,3,13,0.00
2013-8-14,85.0,69.4,60.0,50.0,43.8,-99.9,59,44,23,0.00,40.00,8,4,16,0.00
2013-8-15,85.0,63.2,57.0,53.0,35.2,-99.9,64,46,22,0.00,40.00,7,4,17,0.00
2013-8-16,86.0,69.3,59.0,60.0,52.1,-99.9,82,58,30,0.00,40.00,7,3,18,0.00
2013-8-17,83.0,68.1,55.0,54.0,48.3,-99.9,88,54,32,0.00,40.00,7,4,17,0.00
2013-8-18,87.0,69.1,55.0,51.0,47.4,40.0,80,51,19,0.00,40.00,8,4,17,0.00
2013-8-19,85.0,68.1,57.0,50.0,41.1,-99.9,72,46,24,0.00,40.00,10,4,21,0.00
2013-8-20,88.0,67.7,54.0,49.0,38.2,-99.9,73,43,11,0.00,40.00,5,2,11,0.00
2013-8-21,84.0,70.4,56.0,45.0,36.2,30.0,46,30,16,0.00,40.00,5,2,11,0.00
2013-8-22,80.0,64.6,56.0,57.0,44.7,33.0,92,52,26,0.00,40.00,6,4,17,0.28
2013-8-23,77.0,64.3,55.0,56.0,51.6,47.0,96,67,38,0.00,40.00,9,6,17,0.25
2013-8-24,76.0,62.4,51.0,50.0,44.8,-99.9,86,57,31,0.00,40.00,8,4,18,0.00
2013-8-25,65.0,56.8,51.0,58.0,51.7,43.0,96,83,60,0.00,40.00,6,3,21,0.39
2013-8-26,74.0,58.9,49.0,56.0,48.5,43.0,97,72,39,0.00,40.00,8,4,20,0.06
2013-8-27,73.0,59.4,51.0,51.0,47.5,45.0,83,66,44,0.00,40.00,5,2,9,0.00
2013-8-28,81.0,73.5,63.0,56.0,51.3,48.0,67,47,34,0.00,40.00,7,4,15,0.00
2013-8-29,78.0,65.3,59.0,57.0,52.6,47.0,80,66,39,0.00,40.00,10,4,25,0.01
2013-8-30,82.0,65.7,56.0,53.0,49.4,44.0,85,59,26,0.00,40.00,6,4,15,0.01
2013-8-31,87.0,67.3,53.0,54.0,49.4,-99.9,88,59,27,0.00,40.00,5,2,9,0.00
2013-9-1,89.0,72.6,59.0,50.0,46.6,38.0,64,43,17,0.00,40.00,8,4,16,0.00
2013-9-2,82.0,65.6,53.0,53.0,49.6,45.0,85,59,29,0.00,40.00,6,4,15,0.00
2013-9-3,78.0,64.4,54.0,55.0,49.4,44.0,86,61,30,0.00,40.00,8,3,16,0.00
2013-9-4,80.0,64.4,52.0,52.0,48.1,43.0,87,59,29,0.00,40.00,8,4,16,0.00
2013-9-5,71.0,58.1,51.0,53.0,47.6,39.0,87,69,46,0.00,40.00,14,4,31,0.07
2013-9-6,65.0,55.2,50.0,50.0,46.6,41.0,93,74,52,0.00,40.00,10,7,22,0.05
2013-9-7,79.0,59.4,45.0,51.0,46.0,-99.9,94,67,35,0.00,40.00,4,3,11,0.02
2013-9-8,80.0,64.8,51.0,52.0,47.2,42.0,89,58,28,0.00,40.00,4,2,10,0.00
2013-9-9,87.0,69.7,54.0,47.0,43.1,40.0,67,43,20,0.00,40.00,5,3,9,0.00
2013-9-10,87.0,73.3,56.0,53.0,43.2,38.0,64,37,18,0.00,40.00,5,3,11,0.00
2013-9-11,90.0,73.9,59.0,50.0,44.3,39.0,61,38,17,0.00,40.00,5,2,11,0.00
2013-9-12,93.0,79.7,62.0,50.0,43.9,40.0,49,30,18,0.00,40.00,4,3,11,0.00
2013-9-13,87.0,78.5,63.0,51.0,45.2,43.0,59,32,22,0.00,40.00,6,4,12,0.00
2013-9-14,88.0,72.4,59.0,51.0,44.1,-99.9,67,41,18,0.00,40.00,6,3,14,0.00
2013-9-15,86.0,70.6,56.0,52.0,46.4,43.0,66,44,26,0.00,40.00,9,5,21,0.00
2013-9-16,69.0,57.5,51.0,46.0,42.7,38.0,79,60,35,0.00,40.00,8,6,17,0.00
2013-9-17,61.0,52.6,47.0,45.0,40.2,35.0,77,64,43,0.00,40.00,6,3,15,0.00
2013-9-18,49.0,46.4,43.0,39.0,37.7,37.0,78,71,62,0.00,40.00,6,3,11,0.00
2013-9-19,78.0,57.2,41.0,39.0,35.5,32.0,81,50,20,0.00,40.00,4,3,10,0.00
2013-9-20,75.0,56.5,46.0,46.0,38.5,33.0,87,54,26,0.00,40.00,8,4,23,0.05
2013-9-21,62.0,51.6,47.0,45.0,39.9,-99.9,77,66,47,0.00,40.00,7,4,20,0.05
2013-9-22,55.0,49.1,46.0,48.0,40.7,35.0,85,73,59,0.00,40.00,13,8,29,0.15
2013-9-23,58.0,50.8,47.0,43.0,39.4,35.0,81,65,54,0.00,40.00,12,7,23,0.05
2013-9-24,53.0,45.6,40.0,45.0,40.8,35.0,97,84,60,0.00,40.00,8,4,20,0.13
2013-9-25,53.0,42.8,38.0,39.0,34.1,31.0,90,73,48,0.00,40.00,6,4,15,0.01
2013-9-26,56.0,44.2,36.0,36.0,31.5,29.0,83,64,38,0.00,40.00,8,4,15,0.01
2013-9-27,54.0,44.9,36.0,46.0,37.0,30.0,93,76,40,0.00,40.00,10,6,25,0.05
2013-9-28,56.0,50.2,42.0,51.0,46.4,-99.9,96,89,71,0.00,40.00,12,8,25,0.88
2013-9-29,49.0,43.5,40.0,48.0,41.5,38.0,97,93,82,0.00,40.00,10,8,29,1.74
2013-9-30,49.0,42.8,39.0,47.0,36.7,31.0,93,79,69,0.00,40.00,11,8,27,1.26
2013-10-1,46.0,39.5,34.0,35.0,31.7,30.0,87,74,55,0.00,40.00,6,4,20,0.12
2013-10-2,50.0,38.4,31.0,35.0,31.4,29.0,93,77,44,0.00,40.00,6,3,14,0.01
2013-10-3,54.0,41.5,31.0,35.0,32.3,28.0,92,72,45,0.00,40.00,5,3,12,0.01
2013-10-4,60.0,44.7,33.0,35.0,30.8,26.0,88,62,28,0.00,40.00,5,3,9,0.00
2013-10-5,68.0,49.1,36.0,36.0,32.2,28.0,77,56,29,0.00,40.00,5,3,10,0.00
2013-10-6,73.0,60.3,42.0,39.0,33.1,30.0,64,38,23,0.00,40.00,7,5,16,0.00
2013-10-7,52.0,46.9,40.0,45.0,34.5,27.0,89,63,42,0.00,40.00,9,6,19,0.01
2013-10-8,45.0,40.3,36.0,40.0,35.7,32.0,96,84,70,0.00,40.00,9,5,18,0.12
2013-10-9,45.0,38.6,33.0,37.0,34.3,32.0,97,85,66,0.00,40.00,3,2,10,0.05
2013-10-10,56.0,43.6,34.0,36.0,33.2,31.0,90,70,42,0.00,40.00,6,3,14,0.00
2013-10-11,52.0,43.2,36.0,39.0,36.0,33.0,95,77,54,0.00,40.00,4,2,8,0.00
2013-10-12,47.0,39.5,36.0,39.0,33.7,-99.9,97,82,60,0.00,40.00,3,2,7,0.08
2013-10-13,53.0,43.4,38.0,40.0,36.9,32.0,97,79,56,0.00,40.00,4,2,8,0.03
2013-10-14,56.0,43.9,34.0,37.0,32.4,27.0,90,66,40,0.00,40.00,4,2,10,0.00
2013-10-15,58.0,44.1,33.0,35.0,29.9,26.0,77,59,36,0.00,40.00,4,2,7,0.00
2013-10-16,61.0,46.9,37.0,36.0,32.2,28.0,74,59,33,0.00,40.00,5,2,10,0.00
2013-10-17,62.0,48.1,37.0,37.0,33.2,30.0,83,58,36,0.00,40.00,4,2,8,0.00
2013-10-18,61.0,46.4,36.0,37.0,33.6,30.0,83,63,41,0.00,40.00,4,3,9,0.00
2013-10-19,71.0,53.9,39.0,43.0,34.1,-99.9,74,51,28,0.00,40.00,5,3,8,0.00
2013-10-20,69.0,59.6,44.0,40.0,34.6,30.0,58,40,28,0.00,40.00,4,2,7,0.00
2013-10-21,70.0,55.5,44.0,43.0,36.3,30.0,65,50,32,0.00,40.00,3,2,7,0.00
2013-10-22,68.0,55.0,44.0,43.0,37.4,35.0,73,53,32,0.00,40.00,3,2,7,0.00
2013-10-23,67.0,53.8,42.0,43.0,39.5,35.0,76,60,40,0.00,40.00,4,2,7,0.00
2013-10-24,65.0,52.9,41.0,45.0,40.8,36.0,86,65,46,0.00,40.00,5,3,9,0.00
2013-10-25,68.0,56.1,43.0,44.0,40.4,37.0,81,57,36,0.00,40.00,3,2,7,0.00
2013-10-26,63.0,52.5,42.0,43.0,37.9,-99.9,85,61,45,0.00,40.00,5,3,9,0.00
2013-10-27,47.0,40.3,37.0,40.0,35.4,30.0,97,84,61,0.00,40.00,7,4,21,0.16
2013-10-28,39.0,34.7,29.0,38.0,26.9,-99.9,97,77,58,0.00,40.00,6,4,22,0.12
2013-10-29,48.0,35.2,27.0,23.0,20.2,16.0,69,55,37,0.00,40.00,4,2,7,0.01
2013-10-30,56.0,42.0,31.0,33.0,27.8,22.0,83,59,31,0.00,40.00,7,4,11,0.00
2013-10-31,55.0,47.4,43.0,45.0,40.2,32.0,94,76,61,0.00,40.00,10,5,19,0.00
2013-11-1,59.0,45.6,35.0,40.0,35.0,29.0,86,68,40,0.00,40.00,5,3,8,0.00
2013-11-2,52.0,40.9,32.0,43.0,33.1,-99.9,93,76,57,0.00,40.00,11,8,28,0.23
2013-11-3,38.0,33.9,30.0,33.0,29.2,25.0,95,83,69,0.00,40.00,7,5,20,0.26
2013-11-4,44.0,37.6,33.0,33.0,31.0,29.0,90,77,59,0.00,40.00,8,5,16,0.02
2013-11-5,47.0,43.0,38.0,44.0,39.4,33.0,93,87,80,0.00,40.00,9,6,18,0.22
2013-11-6,51.0,46.5,44.0,45.0,42.4,38.0,98,86,75,0.00,40.00,6,3,15,0.08
2013-11-7,49.0,42.4,37.0,44.0,37.4,28.0,98,83,65,0.00,40.00,12,7,34,0.24
2013-11-8,43.0,37.7,34.0,35.0,32.6,28.0,93,82,63,0.00,40.00,11,4,19,0.09
2013-11-9,44.0,36.5,31.0,35.0,31.5,-99.9,96,85,68,0.00,40.00,4,2,6,0.01
2013-11-10,53.0,42.5,36.0,42.0,37.1,32.0,96,82,61,0.00,40.00,4,2,6,0.00
2013-11-11,42.0,37.9,36.0,38.0,36.2,35.0,98,95,87,0.00,40.00,3,2,6,0.00
2013-11-12,58.0,44.5,37.0,47.0,40.0,35.0,97,85,67,0.00,40.00,8,4,16,0.01
2013-11-13,53.0,43.7,35.0,39.0,36.4,32.0,91,77,53,0.00,40.00,7,3,13,0.01
2013-11-14,45.0,36.4,31.0,32.0,29.3,27.0,90,76,52,0.00,40.00,8,4,15,0.00
2013-11-15,39.0,33.5,28.0,31.0,27.7,24.0,91,80,65,0.00,40.00,14,6,33,0.04
2013-11-16,37.0,34.8,33.0,34.0,30.0,-99.9,92,84,77,0.00,40.00,14,7,34,0.33
2013-11-17,44.0,37.1,33.0,36.0,32.3,30.0,95,83,69,0.00,40.00,10,6,21,0.13
2013-11-18,47.0,42.4,39.0,38.0,34.9,32.0,91,75,58,0.00,40.00,12,8,25,0.11
2013-11-19,46.0,42.9,40.0,43.0,39.7,36.0,94,88,81,0.00,40.00,11,8,24,0.37
2013-11-20,40.0,29.3,17.0,36.0,20.1,-2.0,97,70,40,0.00,40.00,8,3,15,0.02
2013-11-21,35.0,22.7,17.0,7.0,1.4,-4.0,54,40,24,0.00,40.00,5,2,10,0.00
2013-11-22,34.0,22.9,15.0,12.0,8.6,4.0,66,55,39,0.00,40.00,5,3,13,0.00
2013-11-23,36.0,23.6,16.0,16.0,12.1,-99.9,80,64,42,0.00,40.00,4,2,8,0.00
2013-11-24,45.0,31.5,22.0,20.0,16.6,13.0,73,55,32,0.00,40.00,4,2,7,0.00
2013-11-25,44.0,32.9,25.0,23.0,20.2,18.0,74,60,40,0.00,40.00,4,2,7,0.00
2013-11-26,43.0,33.0,27.0,25.0,22.1,20.0,80,65,46,0.00,40.00,5,2,7,0.00
2013-11-27,38.0,31.7,27.0,27.0,23.8,22.0,84,72,58,0.00,40.00,4,2,9,0.00
2013-11-28,44.0,33.2,25.0,27.0,24.4,22.0,91,72,44,0.00,40.00,5,2,8,0.00
2013-11-29,53.0,41.9,34.0,34.0,26.6,22.0,80,55,39,0.00,40.00,4,3,9,0.01
2013-11-30,53.0,44.0,38.0,36.0,28.9,-99.9,80,58,35,0.00,40.00,9,5,19,0.02
2013-12-1,51.0,46.5,42.0,44.0,40.2,26.0,91,79,46,0.00,40.00,19,12,42,0.59
2013-12-2,42.0,33.7,25.0,40.0,28.0,16.0,96,80,53,0.00,40.00,11,7,30,1.65
2013-12-3,26.0,19.7,11.0,23.0,15.6,4.0,92,84,68,0.00,40.00,4,2,11,0.04
2013-12-4,25.0,13.0,7.0,5.0,2.6,1.0,77,64,39,0.00,40.00,3,2,7,0.02
2013-12-5,20.0,10.3,4.0,7.0,3.0,-1.0,82,72,50,0.00,40.00,5,3,9,0.01
2013-12-6,11.0,8.3,6.0,6.0,3.6,2.0,84,81,77,0.00,40.00,4,3,11,0.00
2013-12-7,17.0,5.4,-4.0,3.0,-4.1,-99.9,81,68,42,0.00,40.00,4,2,11,0.05
2013-12-8,19.0,5.2,-5.0,5.0,-2.8,-11.0,79,70,53,0.00,40.00,5,3,8,0.02
2013-12-9,31.0,18.3,8.0,15.0,9.3,0.0,78,68,49,0.00,40.00,5,4,12,0.07
2013-12-10,33.0,26.4,21.0,22.0,18.5,13.0,85,72,60,0.00,40.00,4,2,6,0.03
2013-12-11,38.0,28.8,21.0,25.0,22.0,18.0,90,76,55,0.00,40.00,4,3,7,0.10
2013-12-12,43.0,30.8,21.0,33.0,23.1,16.0,87,74,41,0.00,40.00,11,5,25,0.07
2013-12-13,47.0,38.1,33.0,36.0,32.2,30.0,93,80,56,0.00,40.00,10,5,20,0.01
2013-12-14,48.0,37.6,31.0,34.0,28.7,-99.9,95,75,41,0.00,40.00,6,3,12,0.00
2013-12-15,53.0,46.1,39.0,38.0,34.2,29.0,76,64,49,0.00,40.00,10,7,22,0.00
2013-12-16,53.0,42.3,35.0,33.0,30.4,22.0,83,66,36,0.00,40.00,4,3,9,0.00
2013-12-17,62.0,44.1,35.0,32.0,22.0,18.0,56,44,19,0.00,40.00,10,5,20,0.00
2013-12-18,45.0,38.6,29.0,31.0,26.4,18.0,88,62,35,0.00,40.00,7,4,14,0.00
2013-12-19,31.0,25.9,21.0,26.0,14.9,8.0,88,64,40,0.00,40.00,4,2,9,0.00
2013-12-20,43.0,33.8,23.0,36.0,22.9,7.0,86,65,41,0.00,40.00,15,8,35,0.13
2013-12-21,47.0,41.1,39.0,34.0,31.0,-99.9,77,69,53,0.00,40.00,14,7,30,0.01
2013-12-22,47.0,42.5,40.0,36.0,33.9,32.0,79,71,60,0.00,40.00,10,6,24,0.00
2013-12-23,48.0,44.2,37.0,39.0,33.5,22.0,84,66,51,0.00,40.00,15,9,35,0.01
2013-12-24,47.0,34.4,27.0,29.0,26.0,22.0,93,73,42,0.00,40.00,6,3,12,0.01
2013-12-25,44.0,36.6,29.0,28.0,24.2,21.0,74,61,47,0.00,40.00,5,3,9,0.00
2013-12-26,54.0,42.4,34.0,31.0,26.4,23.0,66,53,39,0.00,40.00,5,3,9,0.00
2013-12-27,56.0,42.6,36.0,28.0,23.4,17.0,65,49,22,0.00,40.00,10,4,23,0.00
2013-12-28,44.0,35.5,30.0,28.0,21.4,-99.9,70,58,39,0.00,40.00,6,3,11,0.00
2013-12-29,46.0,35.5,28.0,24.0,19.3,16.0,71,53,33,0.00,40.00,5,3,9,0.00
2013-12-30,53.0,41.4,37.0,35.0,25.2,15.0,68,53,29,0.00,40.00,8,4,15,0.00
2013-12-31,47.0,43.7,37.0,32.0,23.5,11.0,75,47,24,0.00,40.00,10,6,17,0.00
2014-1-1,47.0,38.0,32.0,34.0,30.4,28.0,92,75,54,0.00,40.00,6,3,9,0.00
2014-1-2,57.0,43.0,33.0,36.0,28.3,25.0,82,59,33,0.00,40.00,13,6,24,0.00